Time;durP1;ratioP1;P1;durP2;ratioP2;P2;SDS_P1;SDS_P2;PMS_P1;PMS_P2;Temp;Humidity;BMP_temperature;BMP_pressure;BME280_temperature;BME280_humidity;BME280_pressure;Samples;Min_cycle;Max_cycle;Signal;HPM_P1;HPM_P2
2021/04/06 00:02:19;;;;;;;0.85;0.50;;;12.30;72.20;;;;;;5114555;28;20050;-38
2021/04/06 00:04:51;;;;;;;1.05;0.52;;;12.30;72.20;;;;;;5112811;28;20096;-40
2021/04/06 00:07:20;;;;;;;1.48;0.60;;;12.30;72.20;;;;;;5112578;28;20048;-41
2021/04/06 00:09:54;;;;;;;0.85;0.40;;;12.30;72.20;;;;;;5113805;28;20499;-44
2021/04/06 00:12:21;;;;;;;0.95;0.40;;;12.20;72.20;;;;;;5112361;28;20050;-39
2021/04/06 00:14:51;;;;;;;1.13;1.00;;;12.30;72.20;;;;;;5114339;28;20040;-40
2021/04/06 00:17:19;;;;;;;0.40;0.40;;;12.30;72.20;;;;;;5111937;28;20515;-41
2021/04/06 00:19:47;;;;;;;0.30;0.30;;;12.30;72.20;;;;;;5113978;28;20046;-39
2021/04/06 00:22:15;;;;;;;0.70;0.40;;;12.20;72.20;;;;;;5114443;28;20089;-40
2021/04/06 00:24:44;;;;;;;0.73;0.40;;;12.30;72.20;;;;;;5114076;27;20070;-38
2021/04/06 00:27:23;;;;;;;1.00;0.50;;;12.30;72.20;;;;;;5114441;28;20050;-39
2021/04/06 00:29:56;;;;;;;1.15;0.60;;;12.20;72.20;;;;;;5113136;28;20671;-38
2021/04/06 00:32:25;;;;;;;0.47;0.40;;;12.30;72.20;;;;;;5112446;28;20487;-38
2021/04/06 00:34:53;;;;;;;0.88;0.40;;;12.30;72.30;;;;;;5113306;28;20050;-37
2021/04/06 00:37:19;;;;;;;1.63;0.50;;;12.30;72.20;;;;;;5114286;28;20036;-39
2021/04/06 00:39:46;;;;;;;1.00;0.40;;;12.20;72.90;;;;;;5113827;28;20224;-39
2021/04/06 00:42:18;;;;;;;0.98;0.70;;;12.30;72.20;;;;;;5113700;27;20419;-40
2021/04/06 00:44:51;;;;;;;0.40;0.40;;;12.20;72.20;;;;;;5113852;28;20047;-38
2021/04/06 00:47:24;;;;;;;0.55;0.50;;;12.20;72.20;;;;;;5111379;28;20057;-39
2021/04/06 00:49:51;;;;;;;0.50;0.50;;;12.20;72.20;;;;;;5112506;28;20082;-38
2021/04/06 00:52:17;;;;;;;1.83;0.45;;;12.30;72.30;;;;;;5113704;28;20040;-38
2021/04/06 00:54:43;;;;;;;1.25;0.50;;;12.20;72.20;;;;;;5114022;28;20119;-38
2021/04/06 00:57:13;;;;;;;1.55;0.90;;;12.30;72.90;;;;;;5113423;28;20066;-40
2021/04/06 01:00:15;;;;;;;1.08;0.50;;;12.20;72.20;;;;;;5110948;28;20069;-38
2021/04/06 01:03:10;;;;;;;0.60;0.52;;;12.30;72.30;;;;;;5111831;28;20048;-39
2021/04/06 01:06:01;;;;;;;0.73;0.40;;;12.20;72.20;;;;;;5047389;28;20045;-38
2021/04/06 01:08:32;;;;;;;2.05;0.60;;;12.20;72.20;;;;;;5048983;28;20060;-39
2021/04/06 01:11:02;;;;;;;0.88;0.40;;;12.20;72.20;;;;;;5048416;28;20075;-39
2021/04/06 01:13:28;;;;;;;1.13;0.70;;;12.20;72.20;;;;;;5050579;28;20053;-42
2021/04/06 01:15:58;;;;;;;0.35;0.32;;;12.20;72.20;;;;;;5050590;28;20123;-41
2021/04/06 01:18:25;;;;;;;2.35;0.60;;;12.20;72.20;;;;;;5050691;28;20053;-45
2021/04/06 01:20:52;;;;;;;0.80;0.45;;;12.20;72.20;;;;;;5050031;28;20818;-43
2021/04/06 01:23:19;;;;;;;1.88;1.10;;;12.20;72.20;;;;;;5050221;28;20490;-46
2021/04/06 01:25:54;;;;;;;2.20;0.63;;;12.20;72.20;;;;;;5049586;28;20045;-43
2021/04/06 01:28:25;;;;;;;1.90;0.63;;;12.20;72.20;;;;;;5050222;28;20068;-43
2021/04/06 01:30:51;;;;;;;2.83;0.90;;;12.20;72.20;;;;;;5049909;28;20053;-42
2021/04/06 01:33:18;;;;;;;1.85;0.40;;;12.20;72.20;;;;;;5050563;28;20792;-41
2021/04/06 01:35:45;;;;;;;1.60;0.60;;;12.20;72.20;;;;;;5049808;28;20041;-43
2021/04/06 01:38:12;;;;;;;1.73;0.80;;;12.20;72.20;;;;;;5050028;28;20056;-42
2021/04/06 01:40:39;;;;;;;1.17;0.63;;;12.20;72.20;;;;;;5050278;28;20513;-42
2021/04/06 01:43:06;;;;;;;1.13;0.63;;;12.20;72.20;;;;;;5094683;28;20487;-43
2021/04/06 01:45:33;;;;;;;2.67;0.75;;;12.20;72.30;;;;;;5112978;28;20148;-42
2021/04/06 01:48:00;;;;;;;1.88;1.02;;;12.20;72.20;;;;;;5112573;28;20044;-38
2021/04/06 01:50:26;;;;;;;1.33;0.60;;;12.10;72.20;;;;;;5112578;28;20510;-42
2021/04/06 01:52:52;;;;;;;1.70;0.52;;;12.20;72.20;;;;;;5112347;27;20043;-38
2021/04/06 01:55:30;;;;;;;0.85;0.40;;;12.20;72.20;;;;;;5112978;28;20062;-43
2021/04/06 01:57:55;;;;;;;3.13;0.68;;;12.20;72.20;;;;;;5112712;28;20048;-40
2021/04/06 02:00:33;;;;;;;0.70;0.40;;;12.20;72.20;;;;;;5112970;28;20388;-41
2021/04/06 02:03:04;;;;;;;1.38;0.55;;;12.20;72.20;;;;;;5109710;28;20047;-40
2021/04/06 02:05:31;;;;;;;0.88;0.50;;;12.20;72.20;;;;;;5112856;28;20096;-40
2021/04/06 02:08:02;;;;;;;3.17;0.82;;;12.10;72.20;;;;;;5109933;28;20096;-41
2021/04/06 02:10:28;;;;;;;2.17;0.82;;;12.10;72.20;;;;;;5112824;28;20039;-46
2021/04/06 02:12:54;;;;;;;1.70;0.70;;;12.20;72.20;;;;;;5115833;28;20054;-38
2021/04/06 02:15:19;;;;;;;1.35;0.70;;;12.10;72.20;;;;;;5117043;28;20119;-43
2021/04/06 02:17:51;;;;;;;1.83;0.60;;;12.10;72.10;;;;;;5116558;28;20051;-45
2021/04/06 02:20:19;;;;;;;1.05;0.50;;;12.20;72.20;;;;;;5116851;28;20396;-41
2021/04/06 02:23:00;;;;;;;1.92;0.50;;;12.10;72.20;;;;;;5116215;28;20087;-41
2021/04/06 02:25:28;;;;;;;2.85;0.98;;;12.20;72.20;;;;;;5116381;28;20046;-38
2021/04/06 02:27:54;;;;;;;1.38;0.75;;;12.20;72.20;;;;;;5114271;28;20047;-42
2021/04/06 02:30:29;;;;;;;3.13;0.77;;;12.20;72.20;;;;;;5116608;28;20152;-41
2021/04/06 02:32:55;;;;;;;;;;;12.10;72.20;;;;;;5115701;28;20119;-41
2021/04/06 02:35:21;;;;;;;;;;;12.10;72.20;;;;;;5116836;28;19920;-42
2021/04/06 02:37:47;;;;;;;1.45;0.55;;;12.10;72.20;;;;;;5116154;28;20367;-41
2021/04/06 02:40:15;;;;;;;0.77;0.57;;;12.10;72.20;;;;;;5116546;27;20074;-41
2021/04/06 02:42:46;;;;;;;2.30;0.75;;;12.10;72.20;;;;;;5115857;28;20039;-40
2021/04/06 02:45:17;;;;;;;1.83;0.70;;;12.10;72.20;;;;;;5113414;28;20040;-39
2021/04/06 02:47:52;;;;;;;1.25;0.57;;;12.10;72.20;;;;;;5116601;28;20054;-41
2021/04/06 02:50:25;;;;;;;1.50;0.80;;;12.10;72.20;;;;;;5114063;28;20044;-46
2021/04/06 02:52:52;;;;;;;0.60;0.50;;;12.10;72.20;;;;;;5113494;28;20040;-40
2021/04/06 02:55:19;;;;;;;1.25;0.82;;;12.10;72.20;;;;;;5115530;28;20483;-38
2021/04/06 02:57:50;;;;;;;1.45;0.77;;;12.10;72.20;;;;;;5114418;28;20046;-40
2021/04/06 03:00:28;;;;;;;3.13;0.75;;;12.10;72.30;;;;;;5114085;28;20111;-39
2021/04/06 03:03:04;;;;;;;2.67;0.70;;;12.10;72.20;;;;;;5113527;28;20403;-40
2021/04/06 03:05:36;;;;;;;2.85;1.13;;;12.10;72.30;;;;;;5113428;28;20046;-42
2021/04/06 03:08:04;;;;;;;2.75;0.82;;;12.10;72.20;;;;;;5115583;28;20044;-39
2021/04/06 03:10:34;;;;;;;1.52;0.75;;;12.10;72.20;;;;;;5115465;28;20126;-39
2021/04/06 03:13:11;;;;;;;1.08;0.60;;;12.10;72.30;;;;;;5115835;27;20049;-41
2021/04/06 03:15:41;;;;;;;1.23;0.52;;;12.10;72.20;;;;;;5115890;28;20124;-42
2021/04/06 03:18:08;;;;;;;1.65;0.75;;;12.10;72.20;;;;;;5115127;28;20071;-39
2021/04/06 03:20:36;;;;;;;0.82;0.50;;;12.10;72.20;;;;;;5115808;28;20052;-43
2021/04/06 03:23:04;;;;;;;1.38;0.65;;;12.10;72.30;;;;;;5112720;28;20078;-41
2021/04/06 03:25:32;;;;;;;1.50;0.77;;;12.10;72.30;;;;;;5115309;28;20089;-41
2021/04/06 03:28:08;;;;;;;1.95;0.68;;;12.10;72.30;;;;;;5115487;28;20096;-40
2021/04/06 03:30:37;;;;;;;2.90;0.70;;;12.10;72.20;;;;;;5115395;28;20053;-40
2021/04/06 03:33:05;;;;;;;1.73;0.73;;;12.10;72.20;;;;;;5112531;28;20043;-40
2021/04/06 03:35:32;;;;;;;1.95;0.80;;;12.10;72.30;;;;;;5115729;27;20044;-39
2021/04/06 03:38:00;;;;;;;1.90;0.77;;;12.10;72.30;;;;;;5115324;28;20040;-40
2021/04/06 03:40:31;;;;;;;1.20;0.80;;;12.10;72.30;;;;;;5115192;28;20138;-41
2021/04/06 03:43:12;;;;;;;2.70;1.15;;;12.10;72.30;;;;;;5114912;27;20142;-41
2021/04/06 03:45:56;;;;;;;1.20;0.60;;;12.10;72.20;;;;;;5115098;28;20130;-40
2021/04/06 03:48:23;;;;;;;3.30;1.23;;;12.10;72.20;;;;;;5111391;28;20063;-37
2021/04/06 03:50:49;;;;;;;1.92;0.80;;;12.10;72.30;;;;;;5114706;28;20039;-39
2021/04/06 03:53:15;;;;;;;0.93;0.50;;;12.10;72.30;;;;;;5115005;28;20154;-40
2021/04/06 03:55:43;;;;;;;2.10;1.02;;;12.00;72.20;;;;;;5112258;28;20118;-41
2021/04/06 03:58:17;;;;;;;2.25;0.60;;;12.00;72.80;;;;;;5114797;28;20085;-41
2021/04/06 04:00:42;;;;;;;0.77;0.55;;;12.00;72.20;;;;;;5111985;28;20039;-40
2021/04/06 04:03:08;;;;;;;1.52;0.80;;;12.10;72.20;;;;;;5114732;28;20836;-41
2021/04/06 04:05:34;;;;;;;2.15;0.75;;;12.10;72.20;;;;;;5115074;28;20380;-38
2021/04/06 04:08:01;;;;;;;1.27;0.60;;;12.10;72.20;;;;;;5114606;28;20039;-40
2021/04/06 04:10:28;;;;;;;0.95;0.63;;;12.00;72.20;;;;;;5114450;28;20067;-40
2021/04/06 04:12:54;;;;;;;3.45;0.60;;;12.00;72.20;;;;;;5114274;28;20044;-40
2021/04/06 04:15:21;;;;;;;1.35;0.68;;;12.00;72.20;;;;;;5114683;28;20043;-41
2021/04/06 04:17:48;;;;;;;0.45;0.45;;;12.00;72.20;;;;;;5114598;28;20051;-38
2021/04/06 04:20:15;;;;;;;2.40;0.68;;;12.00;72.20;;;;;;5114539;28;20051;-41
2021/04/06 04:22:41;;;;;;;1.02;0.60;;;12.00;72.20;;;;;;5114842;28;20054;-40
2021/04/06 04:25:08;;;;;;;1.25;0.80;;;12.00;72.10;;;;;;5114214;28;20130;-41
2021/04/06 04:27:34;;;;;;;2.03;0.68;;;12.00;72.20;;;;;;5113896;28;20050;-42
2021/04/06 04:30:00;;;;;;;0.73;0.52;;;12.00;72.20;;;;;;5114120;28;20035;-39
2021/04/06 04:32:26;;;;;;;1.63;0.80;;;12.00;72.20;;;;;;5113617;28;20059;-40
2021/04/06 04:34:51;;;;;;;0.73;0.60;;;12.00;72.10;;;;;;5113767;28;20044;-41
2021/04/06 04:37:17;;;;;;;2.22;0.68;;;12.00;72.20;;;;;;5113870;28;20126;-38
2021/04/06 04:39:43;;;;;;;0.85;0.40;;;12.00;72.20;;;;;;5114156;28;20046;-41
2021/04/06 04:42:08;;;;;;;2.35;0.80;;;12.00;72.20;;;;;;5113228;28;20127;-40
2021/04/06 04:44:34;;;;;;;1.58;0.70;;;12.00;72.10;;;;;;5113811;28;20039;-40
2021/04/06 04:47:00;;;;;;;1.33;0.60;;;12.00;72.20;;;;;;5114055;28;20047;-40
2021/04/06 04:49:26;;;;;;;2.00;0.70;;;12.00;72.20;;;;;;5113522;28;20060;-40
2021/04/06 04:51:52;;;;;;;1.88;0.60;;;12.00;72.20;;;;;;5112326;28;20047;-42
2021/04/06 04:54:18;;;;;;;1.27;0.90;;;12.00;72.20;;;;;;5114082;28;20070;-40
2021/04/06 04:56:43;;;;;;;1.33;0.73;;;12.00;72.20;;;;;;5113867;28;20460;-41
2021/04/06 04:59:09;;;;;;;2.63;0.77;;;12.00;72.80;;;;;;5113332;28;20054;-41
2021/04/06 05:01:36;;;;;;;0.90;0.65;;;12.00;72.20;;;;;;5113067;28;20067;-40
2021/04/06 05:04:02;;;;;;;1.02;0.70;;;12.00;72.20;;;;;;5112346;28;20075;-40
2021/04/06 05:06:28;;;;;;;2.33;0.82;;;12.00;72.20;;;;;;5110004;28;20051;-40
2021/04/06 05:08:54;;;;;;;1.73;0.70;;;12.00;72.20;;;;;;5113912;28;20051;-44
2021/04/06 05:11:19;;;;;;;1.40;0.68;;;12.00;72.20;;;;;;5114038;28;20484;-42
2021/04/06 05:13:46;;;;;;;1.42;0.50;;;12.00;72.20;;;;;;5113250;28;20491;-38
2021/04/06 05:16:12;;;;;;;2.08;0.73;;;12.00;72.20;;;;;;5113968;28;20043;-41
2021/04/06 05:18:38;;;;;;;1.77;0.88;;;12.00;72.20;;;;;;5114232;28;20062;-40
2021/04/06 05:21:04;;;;;;;2.33;0.80;;;12.00;72.20;;;;;;5114108;28;20164;-39
2021/04/06 05:23:30;;;;;;;1.15;0.50;;;12.00;72.20;;;;;;5113523;28;20039;-43
2021/04/06 05:25:56;;;;;;;2.67;0.90;;;12.00;72.20;;;;;;5113568;28;20070;-43
2021/04/06 05:28:22;;;;;;;0.85;0.60;;;12.00;72.20;;;;;;5113866;28;20078;-41
2021/04/06 05:30:47;;;;;;;1.38;0.70;;;12.00;72.20;;;;;;5113739;28;20096;-40
2021/04/06 05:33:13;;;;;;;1.95;0.60;;;12.00;72.20;;;;;;5113650;28;20479;-44
2021/04/06 05:35:39;;;;;;;1.75;0.82;;;12.00;72.20;;;;;;5113516;28;20051;-45
2021/04/06 05:38:05;;;;;;;2.30;0.77;;;12.00;72.20;;;;;;5113273;28;20475;-38
2021/04/06 05:40:30;;;;;;;2.40;0.70;;;12.00;72.20;;;;;;5113709;28;20574;-43
2021/04/06 05:42:58;;;;;;;0.60;0.50;;;12.00;72.20;;;;;;5113590;28;20104;-42
2021/04/06 05:45:25;;;;;;;1.20;0.70;;;12.00;72.20;;;;;;5112545;28;20043;-41
2021/04/06 05:47:53;;;;;;;1.50;0.77;;;12.00;72.20;;;;;;5112723;28;20114;-42
2021/04/06 05:50:19;;;;;;;1.50;0.60;;;11.90;72.20;;;;;;5112589;28;20048;-47
2021/04/06 05:52:45;;;;;;;1.02;0.70;;;12.00;72.20;;;;;;5112792;28;20047;-43
2021/04/06 05:55:11;;;;;;;2.92;1.05;;;11.90;72.10;;;;;;5112768;28;20048;-41
2021/04/06 05:57:37;;;;;;;2.40;0.70;;;11.90;72.20;;;;;;5112752;28;20059;-42
2021/04/06 06:00:06;;;;;;;2.00;0.70;;;12.00;72.20;;;;;;5112603;28;20043;-45
2021/04/06 06:02:32;;;;;;;2.42;0.88;;;11.90;72.20;;;;;;5111773;28;20052;-43
2021/04/06 06:04:57;;;;;;;2.42;1.10;;;11.90;72.20;;;;;;5112874;28;20058;-42
2021/04/06 06:07:24;;;;;;;2.30;0.70;;;12.00;72.20;;;;;;5112385;28;20081;-42
2021/04/06 06:09:50;;;;;;;1.67;1.10;;;12.00;72.20;;;;;;5112861;28;20036;-40
2021/04/06 06:12:20;;;;;;;1.05;0.60;;;12.00;72.20;;;;;;5112841;28;20035;-43
2021/04/06 06:14:50;;;;;;;1.95;0.75;;;11.90;72.20;;;;;;5110391;28;20067;-43
2021/04/06 06:17:17;;;;;;;2.75;0.90;;;12.00;72.20;;;;;;5111972;28;20498;-39
2021/04/06 06:19:46;;;;;;;1.00;0.52;;;11.90;72.20;;;;;;5110244;28;20050;-41
2021/04/06 06:22:25;;;;;;;1.02;0.70;;;11.90;72.20;;;;;;5112586;28;20044;-42
2021/04/06 06:25:05;;;;;;;2.17;0.80;;;11.90;72.20;;;;;;5110920;28;20046;-40
2021/04/06 06:27:39;;;;;;;1.73;0.57;;;11.90;72.20;;;;;;5112130;28;20039;-40
2021/04/06 06:33:20;;;;;;;1.88;0.73;;;12.00;72.20;;;;;;5110090;28;20054;-39
2021/04/06 06:35:59;;;;;;;1.48;0.60;;;11.90;72.20;;;;;;5110337;28;20074;-39
2021/04/06 06:38:35;;;;;;;1.02;0.90;;;11.90;72.40;;;;;;5112253;28;20078;-38
2021/04/06 06:41:21;;;;;;;;;;;11.90;72.20;;;;;;5112461;28;20040;-41
2021/04/06 06:43:55;;;;;;;2.08;1.35;;;11.90;72.20;;;;;;5111523;28;19970;-40
2021/04/06 06:46:31;;;;;;;1.97;1.10;;;11.90;72.20;;;;;;5109350;28;20071;-37
2021/04/06 06:49:06;;;;;;;1.25;1.15;;;11.90;72.30;;;;;;5111768;28;20308;-39
2021/04/06 06:51:35;;;;;;;1.90;0.88;;;11.90;72.40;;;;;;5112382;28;20044;-41
2021/04/06 06:54:02;;;;;;;0.68;0.60;;;11.90;72.30;;;;;;5109559;28;20502;-39
2021/04/06 06:56:39;;;;;;;2.00;0.73;;;11.90;72.30;;;;;;5112286;28;20044;-43
2021/04/06 06:59:06;;;;;;;0.98;0.60;;;11.90;72.40;;;;;;5113621;28;20487;-42
2021/04/06 07:01:34;;;;;;;1.90;1.00;;;11.90;72.40;;;;;;5115513;28;20130;-39
2021/04/06 07:04:12;;;;;;;1.13;0.68;;;11.90;72.40;;;;;;5112956;28;20070;-43
2021/04/06 07:06:42;;;;;;;10.32;1.40;;;11.90;72.40;;;;;;5115980;28;20407;-42
2021/04/06 07:09:29;;;;;;;3.50;0.90;;;11.90;72.20;;;;;;5115898;28;20047;-38
2021/04/06 07:12:01;;;;;;;1.40;0.80;;;11.20;67.20;;;;;;5115237;28;20120;-39
2021/04/06 07:14:28;;;;;;;2.88;0.93;;;10.10;67.90;;;;;;5116108;28;20126;-38
2021/04/06 07:16:55;;;;;;;2.33;1.08;;;9.10;67.60;;;;;;5115787;28;20103;-37
2021/04/06 07:19:22;;;;;;;6.25;1.80;;;8.40;68.50;;;;;;5115505;28;20082;-39
2021/04/06 07:21:50;;;;;;;2.72;1.23;;;8.30;69.70;;;;;;5115842;28;20185;-38
2021/04/06 07:24:21;;;;;;;5.45;1.20;;;8.30;70.30;;;;;;5115729;28;20054;-39
2021/04/06 07:26:47;;;;;;;5.53;1.17;;;8.50;70.80;;;;;;5115877;28;20051;-36
2021/04/06 07:29:14;;;;;;;2.15;1.20;;;8.70;71.10;;;;;;5115059;28;20071;-39
2021/04/06 07:31:40;;;;;;;3.22;1.20;;;8.90;71.40;;;;;;5113205;28;20039;-39
2021/04/06 07:34:08;;;;;;;1.90;0.98;;;9.00;71.60;;;;;;5115446;28;20047;-39
2021/04/06 07:36:34;;;;;;;3.22;1.30;;;9.20;72.50;;;;;;5115695;28;20067;-41
2021/04/06 07:39:04;;;;;;;4.03;1.15;;;9.30;72.00;;;;;;5115369;28;20136;-37
2021/04/06 07:41:33;;;;;;;2.25;1.10;;;9.40;72.10;;;;;;5115469;28;20051;-38
2021/04/06 07:44:02;;;;;;;1.90;1.00;;;9.60;72.30;;;;;;5112661;28;20399;-40
2021/04/06 07:46:34;;;;;;;3.65;1.10;;;9.70;72.40;;;;;;5115244;28;20044;-38
2021/04/06 07:49:21;;;;;;;3.22;1.17;;;9.80;72.40;;;;;;5137925;27;20043;-39
2021/04/06 07:51:46;;;;;;;1.88;0.80;;;9.90;72.50;;;;;;5113465;28;20499;-38
2021/04/06 07:54:12;;;;;;;2.70;1.15;;;10.00;72.50;;;;;;5115357;28;20071;-35
2021/04/06 07:59:18;;;;;;;3.28;1.30;;;10.20;72.40;;;;;;5115629;28;20044;-38
2021/04/06 08:01:51;;;;;;;2.33;1.10;;;10.30;72.50;;;;;;5115285;28;20044;-37
2021/04/06 08:04:20;;;;;;;0.93;0.80;;;10.30;72.40;;;;;;5114776;28;20047;-37
2021/04/06 08:06:49;;;;;;;3.20;1.00;;;10.40;72.40;;;;;;5112451;28;20116;-37
2021/04/06 08:09:45;;;;;;;1.30;1.10;;;10.50;72.40;;;;;;5114213;27;20047;-37
2021/04/06 08:12:25;;;;;;;2.25;1.00;;;10.50;72.30;;;;;;5113171;28;20043;-38
2021/04/06 08:15:29;;;;;;;1.58;0.93;;;10.60;72.40;;;;;;5110907;28;20043;-38
2021/04/06 08:17:59;;;;;;;1.38;0.90;;;10.70;72.40;;;;;;5048070;28;20149;-37
2021/04/06 08:20:42;;;;;;;2.42;0.80;;;10.70;72.30;;;;;;5051314;28;20049;-37
2021/04/06 08:23:12;;;;;;;2.53;1.05;;;10.80;72.30;;;;;;5050874;28;20382;-35
2021/04/06 08:25:40;;;;;;;2.22;0.73;;;10.80;72.30;;;;;;5051014;28;20900;-36
2021/04/06 08:28:25;;;;;;;0.98;0.63;;;10.80;72.30;;;;;;5050797;28;20048;-36
2021/04/06 08:30:51;;;;;;;2.23;0.90;;;10.90;72.30;;;;;;5051115;28;20045;-37
2021/04/06 08:33:17;;;;;;;1.67;0.95;;;10.90;72.20;;;;;;5051096;28;20640;-35
2021/04/06 08:38:32;;;;;;;1.45;0.70;;;11.00;72.20;;;;;;5051024;28;20053;-37
2021/04/06 08:41:05;;;;;;;1.35;0.90;;;11.00;72.10;;;;;;5041212;28;20044;-38
2021/04/06 08:43:37;;;;;;;1.38;0.85;;;11.10;72.10;;;;;;5051293;28;20045;-37
2021/04/06 08:46:02;;;;;;;2.33;0.75;;;11.10;72.10;;;;;;5051021;28;20063;-37
2021/04/06 08:48:43;;;;;;;1.80;1.02;;;11.10;72.10;;;;;;5050215;28;20044;-37
2021/04/06 08:51:28;;;;;;;1.77;1.10;;;11.20;72.20;;;;;;5063487;28;20074;-37
2021/04/06 08:54:04;;;;;;;2.22;0.85;;;11.20;72.20;;;;;;5110901;28;20124;-38
2021/04/06 08:56:34;;;;;;;0.75;0.75;;;11.20;72.20;;;;;;5113172;28;20047;-35
2021/04/06 08:59:13;;;;;;;3.50;1.00;;;11.30;72.20;;;;;;5111211;28;20488;-36
2021/04/06 09:01:40;;;;;;;1.88;0.93;;;11.30;72.20;;;;;;5111443;28;20176;-37
2021/04/06 09:04:47;;;;;;;1.33;0.50;;;11.30;72.30;;;;;;5112797;28;20043;-37
2021/04/06 09:07:20;;;;;;;1.45;0.95;;;11.30;72.40;;;;;;5056188;28;20052;-39
2021/04/06 09:09:48;;;;;;;1.52;0.93;;;11.30;72.40;;;;;;5059180;28;20056;-37
2021/04/06 09:12:14;;;;;;;0.80;0.70;;;11.40;72.50;;;;;;5044322;28;20420;-38
2021/04/06 09:14:41;;;;;;;0.73;0.68;;;11.40;72.50;;;;;;5060258;28;20172;-39
2021/04/06 09:17:07;;;;;;;2.58;1.25;;;11.40;72.50;;;;;;5058460;28;20504;-37
2021/04/06 09:19:37;;;;;;;1.55;0.85;;;11.50;72.50;;;;;;5058960;28;20049;-37
2021/04/06 09:22:07;;;;;;;1.98;0.70;;;11.50;72.50;;;;;;5055398;28;20053;-36
2021/04/06 09:24:33;;;;;;;0.82;0.40;;;11.50;72.50;;;;;;5044016;28;20049;-38
2021/04/06 09:26:59;;;;;;;0.90;0.70;;;11.50;72.50;;;;;;5048164;28;20301;-37
2021/04/06 09:29:38;;;;;;;1.95;0.70;;;11.60;73.20;;;;;;5044315;28;20037;-36
2021/04/06 09:32:07;;;;;;;0.80;0.70;;;11.60;72.60;;;;;;5045099;28;20140;-36
2021/04/06 09:34:36;;;;;;;1.05;0.80;;;11.60;72.60;;;;;;5035767;28;20048;-37
2021/04/06 09:37:06;;;;;;;3.53;0.80;;;11.60;72.60;;;;;;5054154;28;20049;-37
2021/04/06 09:39:32;;;;;;;2.88;0.90;;;11.60;72.60;;;;;;5052951;28;20053;-37
2021/04/06 09:42:00;;;;;;;1.10;1.00;;;11.70;72.60;;;;;;5054813;28;20052;-36
2021/04/06 09:44:28;;;;;;;0.98;0.80;;;11.70;72.60;;;;;;5091521;28;20192;-36
2021/04/06 09:46:57;;;;;;;2.30;0.90;;;11.70;72.60;;;;;;5107064;28;20484;-35
2021/04/06 09:49:28;;;;;;;1.67;0.75;;;11.80;72.60;;;;;;5106969;28;20502;-36
2021/04/06 09:51:55;;;;;;;0.98;0.70;;;11.70;72.50;;;;;;5107660;28;20051;-36
2021/04/06 09:54:54;;;;;;;0.80;0.80;;;11.80;72.50;;;;;;5100936;28;20097;-37
2021/04/06 09:57:23;;;;;;;1.40;0.70;;;11.80;72.50;;;;;;5102564;28;20065;-37
2021/04/06 09:59:55;;;;;;;1.02;0.70;;;11.80;72.50;;;;;;5110706;28;20059;-36
2021/04/06 10:02:23;;;;;;;1.77;1.00;;;11.80;72.50;;;;;;5110929;28;20055;-37
2021/04/06 10:04:50;;;;;;;1.35;0.70;;;11.80;72.50;;;;;;5110912;28;20047;-40
2021/04/06 10:07:25;;;;;;;0.75;0.63;;;11.90;72.50;;;;;;5110669;28;20534;-41
2021/04/06 10:09:54;;;;;;;2.28;0.63;;;11.90;72.40;;;;;;5109952;28;20044;-42
2021/04/06 10:12:23;;;;;;;1.27;0.80;;;11.90;72.30;;;;;;5112477;28;20047;-41
2021/04/06 10:14:50;;;;;;;1.08;0.50;;;11.90;73.00;;;;;;5112443;28;20051;-42
2021/04/06 10:17:43;;;;;;;2.33;0.68;;;12.00;72.30;;;;;;5111834;28;20123;-40
2021/04/06 10:20:12;;;;;;;1.55;0.65;;;12.00;72.20;;;;;;5049672;28;20053;-39
2021/04/06 10:22:54;;;;;;;2.13;0.70;;;12.00;72.20;;;;;;5049440;28;20052;-37
2021/04/06 10:25:23;;;;;;;1.33;0.68;;;12.00;72.10;;;;;;5057274;28;20048;-38
2021/04/06 10:28:09;;;;;;;1.48;0.90;;;12.00;72.00;;;;;;5067036;28;20127;-41
2021/04/06 10:30:37;;;;;;;;;;;12.00;72.00;;;;;;5068207;28;20049;-39
2021/04/06 10:33:09;;;;;;;1.38;0.77;;;12.10;72.10;;;;;;5070837;28;19924;-41
2021/04/06 10:35:41;;;;;;;0.40;0.40;;;12.10;72.00;;;;;;5073115;28;20553;-38
2021/04/06 10:38:25;;;;;;;1.17;0.68;;;12.10;71.90;;;;;;5070681;28;20076;-39
2021/04/06 10:41:03;;;;;;;0.65;0.43;;;12.10;71.90;;;;;;5073648;28;20044;-39
2021/04/06 10:43:30;;;;;;;1.27;0.55;;;12.10;71.80;;;;;;5072870;28;20059;-40
2021/04/06 10:46:04;;;;;;;2.03;0.80;;;12.10;71.80;;;;;;5073371;28;20437;-39
2021/04/06 10:48:33;;;;;;;1.42;0.77;;;12.10;71.70;;;;;;5072278;28;20055;-39
2021/04/06 10:51:11;;;;;;;0.90;0.50;;;12.10;71.70;;;;;;5072557;28;20048;-39
2021/04/06 10:53:42;;;;;;;1.65;0.60;;;12.20;71.70;;;;;;5072957;28;20098;-40
2021/04/06 10:56:16;;;;;;;0.98;0.60;;;12.20;71.60;;;;;;5077266;28;20504;-38
2021/04/06 10:58:54;;;;;;;0.77;0.60;;;12.20;71.50;;;;;;5115578;28;20043;-38
2021/04/06 11:01:27;;;;;;;1.35;0.85;;;12.30;71.60;;;;;;5115283;28;20088;-38
2021/04/06 11:03:58;;;;;;;1.92;0.80;;;12.20;71.50;;;;;;5115212;28;20043;-41
2021/04/06 11:06:34;;;;;;;1.35;0.65;;;12.20;71.40;;;;;;5115178;28;20044;-40
2021/04/06 11:09:11;;;;;;;0.85;0.52;;;12.30;71.40;;;;;;5115554;28;20039;-41
2021/04/06 11:11:37;;;;;;;1.13;0.50;;;12.30;71.40;;;;;;5115255;28;20539;-41
2021/04/06 11:14:05;;;;;;;1.48;0.70;;;12.30;71.40;;;;;;5115641;28;20051;-38
2021/04/06 11:16:31;;;;;;;2.05;0.70;;;12.30;71.40;;;;;;5114740;28;20096;-39
2021/04/06 11:19:00;;;;;;;1.23;0.70;;;12.30;71.30;;;;;;5113057;28;20138;-40
2021/04/06 11:21:26;;;;;;;0.68;0.65;;;12.30;71.20;;;;;;5115056;28;20054;-38
2021/04/06 11:23:52;;;;;;;1.27;0.55;;;12.30;71.20;;;;;;5114888;28;20044;-43
2021/04/06 11:26:18;;;;;;;1.23;0.65;;;12.30;71.20;;;;;;5114491;28;20044;-42
2021/04/06 11:28:44;;;;;;;1.52;1.02;;;12.40;71.20;;;;;;5115024;28;20043;-41
2021/04/06 11:31:12;;;;;;;0.93;0.50;;;12.40;71.20;;;;;;5114828;28;20048;-41
2021/04/06 11:33:38;;;;;;;3.05;0.90;;;12.40;71.10;;;;;;5113880;28;20119;-41
2021/04/06 11:36:04;;;;;;;1.88;0.93;;;12.40;71.10;;;;;;5115793;28;20118;-40
2021/04/06 11:38:30;;;;;;;0.60;0.60;;;12.40;71.00;;;;;;5115457;28;20051;-40
2021/04/06 11:40:55;;;;;;;0.75;0.70;;;12.40;71.00;;;;;;5115239;28;20047;-40
2021/04/06 11:43:21;;;;;;;0.55;0.55;;;12.40;70.90;;;;;;5111839;28;20127;-41
2021/04/06 11:45:47;;;;;;;1.15;0.88;;;12.50;71.60;;;;;;5114656;28;20399;-39
2021/04/06 11:48:13;;;;;;;1.83;1.02;;;12.50;70.90;;;;;;5114997;28;20055;-39
2021/04/06 11:50:39;;;;;;;1.10;0.60;;;12.50;70.80;;;;;;5114865;28;20218;-39
2021/04/06 11:53:04;;;;;;;1.38;0.70;;;12.50;70.80;;;;;;5114599;28;20130;-39
2021/04/06 11:55:30;;;;;;;1.20;0.77;;;12.50;70.80;;;;;;5114794;28;20048;-37
2021/04/06 11:57:56;;;;;;;2.75;0.85;;;12.50;70.70;;;;;;5114926;27;20404;-40
2021/04/06 12:00:22;;;;;;;1.00;0.60;;;12.50;70.70;;;;;;5114972;28;20051;-41
2021/04/06 12:02:48;;;;;;;1.52;0.68;;;12.50;70.70;;;;;;5115232;28;20483;-39
2021/04/06 12:05:14;;;;;;;1.23;0.57;;;12.50;70.60;;;;;;5115532;28;20043;-39
2021/04/06 12:07:40;;;;;;;1.85;0.70;;;12.50;70.60;;;;;;5115464;28;20054;-41
2021/04/06 12:10:07;;;;;;;1.30;1.10;;;12.50;70.50;;;;;;5113244;28;20378;-41
2021/04/06 12:12:33;;;;;;;0.90;0.50;;;12.50;70.50;;;;;;5115061;28;20047;-39
2021/04/06 12:14:58;;;;;;;1.60;0.70;;;12.60;70.50;;;;;;5115437;28;20054;-39
2021/04/06 12:17:24;;;;;;;3.05;0.80;;;12.60;70.50;;;;;;5115296;28;20484;-41
2021/04/06 12:19:50;;;;;;;1.50;0.63;;;12.60;70.50;;;;;;5114925;27;20043;-42
2021/04/06 12:22:15;;;;;;;1.60;0.50;;;12.60;70.40;;;;;;5115072;28;20074;-40
2021/04/06 12:24:41;;;;;;;1.10;0.85;;;12.60;70.40;;;;;;5114948;28;20044;-43
2021/04/06 12:27:07;;;;;;;1.58;0.70;;;12.60;70.40;;;;;;5114410;28;20105;-43
2021/04/06 12:29:33;;;;;;;1.52;0.70;;;12.60;70.30;;;;;;5114843;28;20051;-43
2021/04/06 12:31:59;;;;;;;1.60;0.82;;;12.60;70.30;;;;;;5114623;28;20480;-40
2021/04/06 12:34:25;;;;;;;1.17;0.77;;;12.60;70.20;;;;;;5115015;28;20058;-42
2021/04/06 12:36:50;;;;;;;1.38;0.75;;;12.60;70.20;;;;;;5114827;28;20476;-43
2021/04/06 12:39:16;;;;;;;0.77;0.68;;;12.60;70.90;;;;;;5114757;28;20139;-42
2021/04/06 12:41:42;;;;;;;1.10;0.90;;;12.70;70.20;;;;;;5114164;28;20051;-42
2021/04/06 12:44:08;;;;;;;1.35;0.80;;;12.70;70.20;;;;;;5114397;28;20106;-41
2021/04/06 12:46:34;;;;;;;1.27;0.63;;;12.70;70.20;;;;;;5113663;28;20123;-42
2021/04/06 12:49:00;;;;;;;2.33;1.08;;;12.70;70.10;;;;;;5114211;28;20122;-39
2021/04/06 12:51:25;;;;;;;1.17;0.73;;;12.70;70.20;;;;;;5114043;28;20052;-38
2021/04/06 12:53:52;;;;;;;1.25;0.85;;;12.60;70.10;;;;;;5113406;28;20491;-38
2021/04/06 12:56:18;;;;;;;0.82;0.82;;;12.70;70.10;;;;;;5113545;28;20483;-40
2021/04/06 12:58:43;;;;;;;1.00;0.63;;;12.70;70.10;;;;;;5114191;28;20047;-37
2021/04/06 13:01:09;;;;;;;1.50;0.60;;;12.70;70.10;;;;;;5114141;28;20048;-40
2021/04/06 13:03:35;;;;;;;0.82;0.60;;;12.70;70.10;;;;;;5114280;28;20089;-38
2021/04/06 13:06:00;;;;;;;1.17;0.80;;;12.70;70.00;;;;;;5114008;28;20487;-41
2021/04/06 13:08:26;;;;;;;1.73;0.75;;;12.70;70.00;;;;;;5114368;28;20056;-39
2021/04/06 13:10:53;;;;;;;2.10;0.70;;;12.70;70.00;;;;;;5114069;28;20051;-37